PWSweather.com
Personal Weather Stations
Station Observations
KKYCRABO2
Cedar Creek Lake 840 Ky. Hwy. 39 N, Crab Orchard, KY 40419

Cedar Creek Lake 840 Ky. Hwy. 39 NCrab Orchard, KY 40419

Lat: 37.4736234544238, Lon: -84.5120286941528

Elevation: 952

Station Type: TYCON Power TP1080WC Pro

http://kbweather.net/

High Low Average
Temperature 88.7°F31.5°F 68.4°F20.2°F 74.6°F23.7°F
Dew Point 88.5°F31.4°F 68.1°F20.1°F 74.4°F23.6°F
Winds 5.4 mph WNW8.7 mph WNW Calm Calm 0.6 mph 1.0 mph
Wind Gusts 16.8 mph27.0 mph -- 4.2 mph6.8 mph
Humidity 99% 99% 99%
Pressure 29.32 in992.90 in 29.07 in984.40 in -
Precipitation 14.98 in380.50 in - -
Hour Temp Dew Point Humidity Winds Wind Gusts Pressure Precip Precip Rate Daily Precip Total
12:00 AM 78.1°F25.6°C 77.8°F25.4°C 99% 2.2 mph WNW3.5 kmh WNW 7.6 mph12.2 kmh 29.29 in991.9 mb 0.00 in0.0 mm 0.00 in/hr0.0 mm/hr 0.00 in0.0 mm
12:05 AM 78.4°F25.8°C 78.2°F25.7°C 99% 5.4 mph WNW8.7 kmh WNW 11.4 mph18.3 kmh 29.31 in992.6 mb 0.00 in0.0 mm 0.00 in/hr0.0 mm/hr 0.00 in0.0 mm
12:10 AM 78.1°F25.6°C 77.8°F25.4°C 99% 3.1 mph WNW5.0 kmh WNW 16.8 mph27.0 kmh 29.31 in992.6 mb 0.00 in0.0 mm 0.00 in/hr0.0 mm/hr 0.00 in0.0 mm
12:15 AM 76.6°F24.8°C 76.4°F24.7°C 99% 0.7 mph NW1.1 kmh NW 16.8 mph27.0 kmh 29.31 in992.6 mb 0.00 in0.0 mm 0.00 in/hr0.0 mm/hr 0.00 in0.0 mm
12:20 AM 76.6°F24.8°C 76.4°F24.7°C 99% 0.7 mph N1.1 kmh N 9.8 mph15.8 kmh 29.30 in992.2 mb 0.00 in0.0 mm 0.00 in/hr0.0 mm/hr 0.00 in0.0 mm
12:25 AM 74.7°F23.7°C 74.4°F23.6°C 99% 1.6 mph N2.6 kmh N 4.5 mph7.2 kmh 29.30 in992.2 mb 0.00 in0.0 mm 0.00 in/hr0.0 mm/hr 0.00 in0.0 mm
12:30 AM 73.9°F23.3°C 73.7°F23.2°C 99% Calm Calm 8.3 mph13.4 kmh 29.30 in992.2 mb 0.00 in0.0 mm 0.00 in/hr0.0 mm/hr 0.00 in0.0 mm
12:35 AM 73.2°F22.9°C 73.0°F22.8°C 99% 0.7 mph WNW1.1 kmh WNW 12.1 mph19.5 kmh 29.31 in992.6 mb 0.00 in0.0 mm 0.00 in/hr0.0 mm/hr 0.00 in0.0 mm
12:40 AM 73.2°F22.9°C 73.0°F22.8°C 99% 0.7 mph NW1.1 kmh NW 12.1 mph19.5 kmh 29.30 in992.2 mb 0.00 in0.0 mm 0.00 in/hr0.0 mm/hr 0.00 in0.0 mm
12:45 AM 72.5°F22.5°C 72.2°F22.3°C 99% 1.6 mph NNW2.6 kmh NNW 6.0 mph9.7 kmh 29.30 in992.2 mb 0.00 in0.0 mm 0.00 in/hr0.0 mm/hr 0.00 in0.0 mm
12:50 AM 72.3°F22.4°C 72.1°F22.3°C 99% Calm Calm 6.9 mph11.1 kmh 29.31 in992.6 mb 0.00 in0.0 mm 0.00 in/hr0.0 mm/hr 0.00 in0.0 mm
12:55 AM 72.0°F22.2°C 71.7°F22.1°C 99% 0.7 mph N1.1 kmh N 6.9 mph11.1 kmh 29.31 in992.6 mb 0.00 in0.0 mm 0.00 in/hr0.0 mm/hr 0.00 in0.0 mm
01:00 AM 71.4°F21.9°C 71.2°F21.8°C 99% Calm Calm 6.9 mph11.1 kmh 29.31 in992.6 mb 0.01 in0.3 mm 0.01 in/hr0.3 mm/hr 0.01 in0.3 mm
01:05 AM 71.1°F21.7°C 70.8°F21.6°C 99% 1.6 mph NW2.6 kmh NW 7.6 mph12.2 kmh 29.31 in992.6 mb 0.02 in0.5 mm 0.12 in/hr3.0 mm/hr 0.02 in0.5 mm
01:10 AM 70.7°F21.5°C 70.4°F21.3°C 99% 0.7 mph NW1.1 kmh NW 7.6 mph12.2 kmh 29.31 in992.6 mb 0.02 in0.5 mm 0.00 in/hr0.0 mm/hr 0.02 in0.5 mm
01:15 AM 70.3°F21.3°C 70.1°F21.2°C 99% Calm Calm 5.4 mph8.7 kmh 29.32 in992.9 mb 0.05 in1.3 mm 0.36 in/hr9.1 mm/hr 0.05 in1.3 mm
01:20 AM 70.2°F21.2°C 69.9°F21.1°C 99% 0.7 mph NW1.1 kmh NW 4.5 mph7.2 kmh 29.31 in992.6 mb 0.05 in1.3 mm 0.00 in/hr0.0 mm/hr 0.05 in1.3 mm
01:25 AM 69.8°F21.0°C 69.5°F20.8°C 99% 0.7 mph N1.1 kmh N 5.4 mph8.7 kmh 29.31 in992.6 mb 0.07 in1.8 mm 0.24 in/hr6.1 mm/hr 0.07 in1.8 mm
01:30 AM 69.8°F21.0°C 69.5°F20.8°C 99% 0.7 mph N1.1 kmh N 6.9 mph11.1 kmh 29.31 in992.6 mb 0.07 in1.8 mm 0.00 in/hr0.0 mm/hr 0.07 in1.8 mm
01:35 AM 69.4°F20.8°C 69.2°F20.7°C 99% 1.6 mph NNW2.6 kmh NNW 6.9 mph11.1 kmh 29.31 in992.6 mb 0.09 in2.3 mm 0.24 in/hr6.1 mm/hr 0.09 in2.3 mm
01:40 AM 69.3°F20.7°C 69.0°F20.6°C 99% 0.7 mph NW1.1 kmh NW 13.0 mph20.9 kmh 29.32 in992.9 mb 0.11 in2.8 mm 0.24 in/hr6.1 mm/hr 0.11 in2.8 mm
01:45 AM 69.1°F20.6°C 68.8°F20.4°C 99% 0.7 mph WNW1.1 kmh WNW 13.0 mph20.9 kmh 29.31 in992.6 mb 0.12 in3.0 mm 0.12 in/hr3.0 mm/hr 0.12 in3.0 mm
01:50 AM 69.1°F20.6°C 68.8°F20.4°C 99% 2.2 mph NNW3.5 kmh NNW 8.3 mph13.4 kmh 29.30 in992.2 mb 0.14 in3.6 mm 0.24 in/hr6.1 mm/hr 0.14 in3.6 mm
01:55 AM 68.9°F20.5°C 68.6°F20.3°C 99% Calm Calm 5.4 mph8.7 kmh 29.29 in991.9 mb 0.14 in3.6 mm 0.00 in/hr0.0 mm/hr 0.14 in3.6 mm
02:00 AM 68.9°F20.5°C 68.6°F20.3°C 99% Calm Calm 5.4 mph8.7 kmh 29.28 in991.5 mb 0.13 in3.3 mm 0.00 in/hr0.0 mm/hr 0.14 in3.6 mm
02:05 AM 68.9°F20.5°C 68.6°F20.3°C 99% 2.2 mph SE3.5 kmh SE 3.8 mph6.1 kmh 29.26 in990.9 mb 0.13 in3.3 mm 0.00 in/hr0.0 mm/hr 0.15 in3.8 mm
02:10 AM 68.9°F20.5°C 68.6°F20.3°C 99% 2.2 mph SSE3.5 kmh SSE 6.0 mph9.7 kmh 29.26 in990.9 mb 0.13 in3.3 mm 0.00 in/hr0.0 mm/hr 0.15 in3.8 mm
02:15 AM 68.7°F20.4°C 68.5°F20.3°C 99% 2.2 mph SE3.5 kmh SE 6.0 mph9.7 kmh 29.27 in991.2 mb 0.12 in3.0 mm 0.00 in/hr0.0 mm/hr 0.17 in4.3 mm
02:20 AM 68.7°F20.4°C 68.5°F20.3°C 99% 1.6 mph SE2.6 kmh SE 4.5 mph7.2 kmh 29.25 in990.5 mb 0.12 in3.0 mm 0.00 in/hr0.0 mm/hr 0.17 in4.3 mm
02:25 AM 68.7°F20.4°C 68.5°F20.3°C 99% 0.7 mph ESE1.1 kmh ESE 4.5 mph7.2 kmh 29.25 in990.5 mb 0.09 in2.3 mm 0.00 in/hr0.0 mm/hr 0.17 in4.3 mm
02:30 AM 68.7°F20.4°C 68.5°F20.3°C 99% 0.7 mph E1.1 kmh E 4.5 mph7.2 kmh 29.24 in990.2 mb 0.09 in2.3 mm 0.00 in/hr0.0 mm/hr 0.17 in4.3 mm
02:35 AM 68.7°F20.4°C 68.5°F20.3°C 99% 1.6 mph SE2.6 kmh SE 5.4 mph8.7 kmh 29.23 in989.8 mb 0.07 in1.8 mm 0.00 in/hr0.0 mm/hr 0.17 in4.3 mm
02:40 AM 68.7°F20.4°C 68.5°F20.3°C 99% 2.2 mph SSE3.5 kmh SSE 6.0 mph9.7 kmh 29.22 in989.5 mb 0.06 in1.5 mm 0.00 in/hr0.0 mm/hr 0.17 in4.3 mm
02:45 AM 68.9°F20.5°C 68.6°F20.3°C 99% 2.2 mph SE3.5 kmh SE 6.0 mph9.7 kmh 29.22 in989.5 mb 0.05 in1.3 mm 0.00 in/hr0.0 mm/hr 0.17 in4.3 mm
02:50 AM 68.9°F20.5°C 68.6°F20.3°C 99% 3.8 mph SE6.1 kmh SE 7.6 mph12.2 kmh 29.21 in989.2 mb 0.02 in0.5 mm 0.00 in/hr0.0 mm/hr 0.17 in4.3 mm
02:55 AM 68.9°F20.5°C 68.6°F20.3°C 99% 3.1 mph SSE5.0 kmh SSE 7.6 mph12.2 kmh 29.20 in988.8 mb 0.02 in0.5 mm 0.00 in/hr0.0 mm/hr 0.17 in4.3 mm
03:00 AM 68.9°F20.5°C 68.6°F20.3°C 99% 2.2 mph SSE3.5 kmh SSE 7.6 mph12.2 kmh 29.20 in988.8 mb 0.02 in0.5 mm 0.00 in/hr0.0 mm/hr 0.17 in4.3 mm
03:05 AM 68.7°F20.4°C 68.5°F20.3°C 99% 2.2 mph SE3.5 kmh SE 6.9 mph11.1 kmh 29.20 in988.8 mb 0.01 in0.3 mm 0.00 in/hr0.0 mm/hr 0.17 in4.3 mm
03:10 AM 68.9°F20.5°C 68.6°F20.3°C 99% Calm Calm 5.4 mph8.7 kmh 29.21 in989.2 mb 0.01 in0.3 mm 0.00 in/hr0.0 mm/hr 0.17 in4.3 mm
03:15 AM 68.9°F20.5°C 68.6°F20.3°C 99% Calm Calm 5.4 mph8.7 kmh 29.22 in989.5 mb 0.00 in0.0 mm 0.00 in/hr0.0 mm/hr 0.17 in4.3 mm
03:20 AM 68.7°F20.4°C 68.5°F20.3°C 99% Calm Calm 3.1 mph5.0 kmh 29.22 in989.5 mb 0.00 in0.0 mm 0.00 in/hr0.0 mm/hr 0.17 in4.3 mm
03:25 AM 68.7°F20.4°C 68.5°F20.3°C 99% Calm Calm 0.7 mph1.1 kmh 29.22 in989.5 mb 0.00 in0.0 mm 0.00 in/hr0.0 mm/hr 0.17 in4.3 mm
03:30 AM 68.7°F20.4°C 68.5°F20.3°C 99% Calm Calm -- 29.22 in989.5 mb 0.00 in0.0 mm 0.00 in/hr0.0 mm/hr 0.17 in4.3 mm
03:35 AM 68.7°F20.4°C 68.5°F20.3°C 99% Calm Calm 1.6 mph2.6 kmh 29.22 in989.5 mb 0.00 in0.0 mm 0.00 in/hr0.0 mm/hr 0.17 in4.3 mm
03:40 AM 68.5°F20.3°C 68.3°F20.2°C 99% Calm Calm 1.6 mph2.6 kmh 29.22 in989.5 mb 0.00 in0.0 mm 0.00 in/hr0.0 mm/hr 0.17 in4.3 mm
03:45 AM 68.5°F20.3°C 68.3°F20.2°C 99% Calm Calm 0.7 mph1.1 kmh 29.22 in989.5 mb 0.00 in0.0 mm 0.00 in/hr0.0 mm/hr 0.17 in4.3 mm
03:50 AM 68.5°F20.3°C 68.3°F20.2°C 99% Calm Calm 0.7 mph1.1 kmh 29.23 in989.8 mb 0.00 in0.0 mm 0.00 in/hr0.0 mm/hr 0.17 in4.3 mm
03:55 AM 68.5°F20.3°C 68.3°F20.2°C 99% Calm Calm 0.7 mph1.1 kmh 29.23 in989.8 mb 0.00 in0.0 mm 0.00 in/hr0.0 mm/hr 0.17 in4.3 mm
04:00 AM 68.5°F20.3°C 68.3°F20.2°C 99% Calm Calm 0.7 mph1.1 kmh 29.23 in989.8 mb 0.00 in0.0 mm 0.00 in/hr0.0 mm/hr 0.17 in4.3 mm
04:05 AM 68.4°F20.2°C 68.1°F20.1°C 99% Calm Calm 1.6 mph2.6 kmh 29.22 in989.5 mb 0.00 in0.0 mm 0.00 in/hr0.0 mm/hr 0.17 in4.3 mm
04:10 AM 68.5°F20.3°C 68.3°F20.2°C 99% Calm Calm 2.2 mph3.5 kmh 29.23 in989.8 mb 0.00 in0.0 mm 0.00 in/hr0.0 mm/hr 0.17 in4.3 mm
04:15 AM 68.4°F20.2°C 68.1°F20.1°C 99% Calm Calm 2.2 mph3.5 kmh 29.23 in989.8 mb 0.00 in0.0 mm 0.00 in/hr0.0 mm/hr 0.17 in4.3 mm
04:20 AM 68.4°F20.2°C 68.1°F20.1°C 99% Calm Calm 2.2 mph3.5 kmh 29.23 in989.8 mb 0.00 in0.0 mm 0.00 in/hr0.0 mm/hr 0.17 in4.3 mm
04:25 AM 68.4°F20.2°C 68.1°F20.1°C 99% Calm Calm 1.6 mph2.6 kmh 29.23 in989.8 mb 0.00 in0.0 mm 0.00 in/hr0.0 mm/hr 0.17 in4.3 mm
04:30 AM 68.4°F20.2°C 68.1°F20.1°C 99% Calm Calm 2.2 mph3.5 kmh 29.22 in989.5 mb 0.00 in0.0 mm 0.00 in/hr0.0 mm/hr 0.17 in4.3 mm
04:35 AM 68.5°F20.3°C 68.3°F20.2°C 99% Calm Calm 2.2 mph3.5 kmh 29.23 in989.8 mb 0.00 in0.0 mm 0.00 in/hr0.0 mm/hr 0.17 in4.3 mm
04:40 AM 68.5°F20.3°C 68.3°F20.2°C 99% Calm Calm 2.2 mph3.5 kmh 29.23 in989.8 mb 0.00 in0.0 mm 0.00 in/hr0.0 mm/hr 0.17 in4.3 mm
04:45 AM 68.7°F20.4°C 68.5°F20.3°C 99% Calm Calm 4.5 mph7.2 kmh 29.23 in989.8 mb 0.00 in0.0 mm 0.00 in/hr0.0 mm/hr 0.17 in4.3 mm
04:50 AM 68.7°F20.4°C 68.5°F20.3°C 99% Calm Calm 4.5 mph7.2 kmh 29.23 in989.8 mb 0.00 in0.0 mm 0.00 in/hr0.0 mm/hr 0.17 in4.3 mm
04:55 AM 68.7°F20.4°C 68.5°F20.3°C 99% Calm Calm 2.2 mph3.5 kmh 29.23 in989.8 mb 0.00 in0.0 mm 0.00 in/hr0.0 mm/hr 0.17 in4.3 mm
05:00 AM 68.9°F20.5°C 68.6°F20.3°C 99% Calm Calm 2.2 mph3.5 kmh 29.23 in989.8 mb 0.00 in0.0 mm 0.00 in/hr0.0 mm/hr 0.17 in4.3 mm
05:05 AM 68.7°F20.4°C 68.5°F20.3°C 99% Calm Calm 2.2 mph3.5 kmh 29.23 in989.8 mb 0.00 in0.0 mm 0.00 in/hr0.0 mm/hr 0.17 in4.3 mm
05:10 AM 68.9°F20.5°C 68.6°F20.3°C 99% Calm Calm 2.2 mph3.5 kmh 29.23 in989.8 mb 0.00 in0.0 mm 0.00 in/hr0.0 mm/hr 0.17 in4.3 mm
05:15 AM 68.9°F20.5°C 68.6°F20.3°C 99% Calm Calm 1.6 mph2.6 kmh 29.24 in990.2 mb 0.00 in0.0 mm 0.00 in/hr0.0 mm/hr 0.17 in4.3 mm
05:20 AM 68.9°F20.5°C 68.6°F20.3°C 99% Calm Calm 3.1 mph5.0 kmh 29.24 in990.2 mb 0.00 in0.0 mm 0.00 in/hr0.0 mm/hr 0.17 in4.3 mm
05:25 AM 68.9°F20.5°C 68.6°F20.3°C 99% 0.7 mph ENE1.1 kmh ENE 3.1 mph5.0 kmh 29.24 in990.2 mb 0.00 in0.0 mm 0.00 in/hr0.0 mm/hr 0.17 in4.3 mm
05:30 AM 68.9°F20.5°C 68.6°F20.3°C 99% 0.7 mph NE1.1 kmh NE 3.1 mph5.0 kmh 29.23 in989.8 mb 0.00 in0.0 mm 0.00 in/hr0.0 mm/hr 0.17 in4.3 mm
05:35 AM 69.1°F20.6°C 68.8°F20.4°C 99% Calm Calm 2.2 mph3.5 kmh 29.23 in989.8 mb 0.00 in0.0 mm 0.00 in/hr0.0 mm/hr 0.17 in4.3 mm
05:40 AM 69.1°F20.6°C 68.8°F20.4°C 99% Calm Calm 5.4 mph8.7 kmh 29.23 in989.8 mb 0.00 in0.0 mm 0.00 in/hr0.0 mm/hr 0.17 in4.3 mm
05:45 AM 69.1°F20.6°C 68.8°F20.4°C 99% Calm Calm 5.4 mph8.7 kmh 29.23 in989.8 mb 0.00 in0.0 mm 0.00 in/hr0.0 mm/hr 0.17 in4.3 mm
05:50 AM 69.1°F20.6°C 68.8°F20.4°C 99% Calm Calm 2.2 mph3.5 kmh 29.24 in990.2 mb 0.00 in0.0 mm 0.00 in/hr0.0 mm/hr 0.17 in4.3 mm
05:55 AM 69.3°F20.7°C 69.0°F20.6°C 99% Calm Calm 1.6 mph2.6 kmh 29.23 in989.8 mb 0.00 in0.0 mm 0.00 in/hr0.0 mm/hr 0.17 in4.3 mm
06:00 AM 69.3°F20.7°C 69.0°F20.6°C 99% Calm Calm 7.6 mph12.2 kmh 29.24 in990.2 mb 0.00 in0.0 mm 0.00 in/hr0.0 mm/hr 0.17 in4.3 mm
06:05 AM 69.3°F20.7°C 69.0°F20.6°C 99% Calm Calm 7.6 mph12.2 kmh 29.24 in990.2 mb 0.00 in0.0 mm 0.00 in/hr0.0 mm/hr 0.17 in4.3 mm
06:10 AM 69.3°F20.7°C 69.0°F20.6°C 99% Calm Calm 2.2 mph3.5 kmh 29.25 in990.5 mb 0.00 in0.0 mm 0.00 in/hr0.0 mm/hr 0.17 in4.3 mm
06:15 AM 69.3°F20.7°C 69.0°F20.6°C 99% 0.7 mph NNE1.1 kmh NNE 2.2 mph3.5 kmh 29.25 in990.5 mb 0.00 in0.0 mm 0.00 in/hr0.0 mm/hr 0.17 in4.3 mm
06:20 AM 69.3°F20.7°C 69.0°F20.6°C 99% Calm Calm 2.2 mph3.5 kmh 29.23 in989.8 mb 0.01 in0.3 mm 0.12 in/hr3.0 mm/hr 0.18 in4.6 mm
06:25 AM 69.3°F20.7°C 69.0°F20.6°C 99% 0.7 mph N1.1 kmh N 2.2 mph3.5 kmh 29.23 in989.8 mb 0.02 in0.5 mm 0.12 in/hr3.0 mm/hr 0.19 in4.8 mm
06:30 AM 69.3°F20.7°C 69.0°F20.6°C 99% 0.7 mph W1.1 kmh W 8.3 mph13.4 kmh 29.23 in989.8 mb 0.02 in0.5 mm 0.00 in/hr0.0 mm/hr 0.19 in4.8 mm
06:35 AM 69.3°F20.7°C 69.0°F20.6°C 99% Calm Calm 8.3 mph13.4 kmh 29.22 in989.5 mb 0.04 in1.0 mm 0.24 in/hr6.1 mm/hr 0.20 in5.1 mm
06:40 AM 69.3°F20.7°C 69.0°F20.6°C 99% Calm Calm 3.1 mph5.0 kmh 29.22 in989.5 mb 0.04 in1.0 mm 0.00 in/hr0.0 mm/hr 0.20 in5.1 mm
06:45 AM 69.3°F20.7°C 69.0°F20.6°C 99% 1.6 mph S2.6 kmh S 5.4 mph8.7 kmh 29.23 in989.8 mb 0.04 in1.0 mm 0.00 in/hr0.0 mm/hr 0.20 in5.1 mm
06:50 AM 69.4°F20.8°C 69.2°F20.7°C 99% 2.2 mph SSW3.5 kmh SSW 5.4 mph8.7 kmh 29.24 in990.2 mb 0.04 in1.0 mm 0.00 in/hr0.0 mm/hr 0.20 in5.1 mm
06:55 AM 69.6°F20.9°C 69.4°F20.8°C 99% Calm Calm 5.4 mph8.7 kmh 29.26 in990.9 mb 0.04 in1.0 mm 0.00 in/hr0.0 mm/hr 0.20 in5.1 mm
07:00 AM 69.6°F20.9°C 69.4°F20.8°C 99% Calm Calm 5.4 mph8.7 kmh 29.26 in990.9 mb 0.04 in1.0 mm 0.00 in/hr0.0 mm/hr 0.20 in5.1 mm
07:05 AM 69.8°F21.0°C 69.5°F20.8°C 99% 1.6 mph W2.6 kmh W 3.8 mph6.1 kmh 29.27 in991.2 mb 0.04 in1.0 mm 0.00 in/hr0.0 mm/hr 0.20 in5.1 mm
07:10 AM 70.0°F21.1°C 69.7°F20.9°C 99% 0.7 mph W1.1 kmh W 4.5 mph7.2 kmh 29.28 in991.5 mb 0.05 in1.3 mm 0.12 in/hr3.0 mm/hr 0.21 in5.3 mm
07:15 AM 70.0°F21.1°C 69.7°F20.9°C 99% 0.7 mph W1.1 kmh W 4.5 mph7.2 kmh 29.27 in991.2 mb 0.04 in1.0 mm 0.00 in/hr0.0 mm/hr 0.21 in5.3 mm
07:20 AM 70.3°F21.3°C 70.1°F21.2°C 99% 2.2 mph WNW3.5 kmh WNW 6.0 mph9.7 kmh 29.26 in990.9 mb 0.04 in1.0 mm 0.00 in/hr0.0 mm/hr 0.21 in5.3 mm
07:25 AM 70.5°F21.4°C 70.3°F21.3°C 99% Calm Calm 6.0 mph9.7 kmh 29.26 in990.9 mb 0.02 in0.5 mm 0.00 in/hr0.0 mm/hr 0.21 in5.3 mm
07:30 AM 70.5°F21.4°C 70.3°F21.3°C 99% Calm Calm 4.5 mph7.2 kmh 29.26 in990.9 mb 0.02 in0.5 mm 0.00 in/hr0.0 mm/hr 0.21 in5.3 mm
07:35 AM 70.2°F21.2°C 69.9°F21.1°C 99% Calm Calm 1.6 mph2.6 kmh 29.27 in991.2 mb 0.02 in0.5 mm 0.00 in/hr0.0 mm/hr 0.22 in5.6 mm
07:40 AM 70.0°F21.1°C 69.7°F20.9°C 99% Calm Calm 1.6 mph2.6 kmh 29.26 in990.9 mb 0.04 in1.0 mm 0.24 in/hr6.1 mm/hr 0.24 in6.1 mm
07:45 AM 70.0°F21.1°C 69.7°F20.9°C 99% Calm Calm 1.6 mph2.6 kmh 29.26 in990.9 mb 0.04 in1.0 mm 0.00 in/hr0.0 mm/hr 0.24 in6.1 mm
07:50 AM 70.0°F21.1°C 69.7°F20.9°C 99% Calm Calm 1.6 mph2.6 kmh 29.25 in990.5 mb 0.04 in1.0 mm 0.00 in/hr0.0 mm/hr 0.24 in6.1 mm
07:55 AM 69.8°F21.0°C 69.5°F20.8°C 99% Calm Calm 1.6 mph2.6 kmh 29.26 in990.9 mb 0.04 in1.0 mm 0.00 in/hr0.0 mm/hr 0.24 in6.1 mm
08:00 AM 69.8°F21.0°C 69.5°F20.8°C 99% Calm Calm 1.6 mph2.6 kmh 29.29 in991.9 mb 0.04 in1.0 mm 0.00 in/hr0.0 mm/hr 0.24 in6.1 mm
08:05 AM 69.8°F21.0°C 69.5°F20.8°C 99% Calm Calm 0.7 mph1.1 kmh 29.27 in991.2 mb 0.04 in1.0 mm 0.00 in/hr0.0 mm/hr 0.24 in6.1 mm
08:10 AM 69.6°F20.9°C 69.4°F20.8°C 99% 0.7 mph NE1.1 kmh NE 2.2 mph3.5 kmh 29.25 in990.5 mb 0.05 in1.3 mm 0.12 in/hr3.0 mm/hr 0.26 in6.6 mm
08:15 AM 69.6°F20.9°C 69.4°F20.8°C 99% Calm Calm 2.2 mph3.5 kmh 29.27 in991.2 mb 0.05 in1.3 mm 0.00 in/hr0.0 mm/hr 0.26 in6.6 mm
08:20 AM 69.4°F20.8°C 69.2°F20.7°C 99% Calm Calm -- 29.28 in991.5 mb 0.06 in1.5 mm 0.12 in/hr3.0 mm/hr 0.27 in6.9 mm
08:25 AM 69.6°F20.9°C 69.4°F20.8°C 99% Calm Calm 1.6 mph2.6 kmh 29.26 in990.9 mb 0.06 in1.5 mm 0.00 in/hr0.0 mm/hr 0.27 in6.9 mm
08:30 AM 69.6°F20.9°C 69.4°F20.8°C 99% 3.8 mph SSE6.1 kmh SSE 5.4 mph8.7 kmh 29.22 in989.5 mb 0.07 in1.8 mm 0.12 in/hr3.0 mm/hr 0.28 in7.1 mm
08:35 AM 69.6°F20.9°C 69.4°F20.8°C 99% Calm Calm 5.4 mph8.7 kmh 29.25 in990.5 mb 0.06 in1.5 mm 0.00 in/hr0.0 mm/hr 0.28 in7.1 mm
08:40 AM 69.6°F20.9°C 69.4°F20.8°C 99% Calm Calm 5.4 mph8.7 kmh 29.23 in989.8 mb 0.05 in1.3 mm 0.00 in/hr0.0 mm/hr 0.28 in7.1 mm
08:45 AM 69.6°F20.9°C 69.4°F20.8°C 99% 0.7 mph NW1.1 kmh NW 3.8 mph6.1 kmh 29.23 in989.8 mb 0.05 in1.3 mm 0.00 in/hr0.0 mm/hr 0.28 in7.1 mm
08:50 AM 69.6°F20.9°C 69.4°F20.8°C 99% Calm Calm 3.8 mph6.1 kmh 29.24 in990.2 mb 0.05 in1.3 mm 0.00 in/hr0.0 mm/hr 0.28 in7.1 mm
08:55 AM 69.6°F20.9°C 69.4°F20.8°C 99% Calm Calm 3.1 mph5.0 kmh 29.24 in990.2 mb 0.05 in1.3 mm 0.00 in/hr0.0 mm/hr 0.28 in7.1 mm
09:00 AM 69.6°F20.9°C 69.4°F20.8°C 99% 0.7 mph SE1.1 kmh SE 2.2 mph3.5 kmh 29.25 in990.5 mb 0.05 in1.3 mm 0.00 in/hr0.0 mm/hr 0.28 in7.1 mm
09:05 AM 69.6°F20.9°C 69.4°F20.8°C 99% Calm Calm 2.2 mph3.5 kmh 29.25 in990.5 mb 0.05 in1.3 mm 0.00 in/hr0.0 mm/hr 0.28 in7.1 mm
09:10 AM 69.4°F20.8°C 69.2°F20.7°C 99% 0.7 mph NE1.1 kmh NE 2.2 mph3.5 kmh 29.24 in990.2 mb 0.02 in0.5 mm 0.00 in/hr0.0 mm/hr 0.28 in7.1 mm
09:15 AM 69.6°F20.9°C 69.4°F20.8°C 99% Calm Calm 2.2 mph3.5 kmh 29.24 in990.2 mb 0.02 in0.5 mm 0.00 in/hr0.0 mm/hr 0.28 in7.1 mm
09:20 AM 69.8°F21.0°C 69.5°F20.8°C 99% 1.6 mph WNW2.6 kmh WNW 3.8 mph6.1 kmh 29.23 in989.8 mb 0.01 in0.3 mm 0.00 in/hr0.0 mm/hr 0.28 in7.1 mm
09:25 AM 69.8°F21.0°C 69.5°F20.8°C 99% 0.7 mph WSW1.1 kmh WSW 3.8 mph6.1 kmh 29.23 in989.8 mb 0.01 in0.3 mm 0.00 in/hr0.0 mm/hr 0.28 in7.1 mm
09:30 AM 69.8°F21.0°C 69.5°F20.8°C 99% 0.7 mph WSW1.1 kmh WSW 3.8 mph6.1 kmh 29.23 in989.8 mb 0.00 in0.0 mm 0.00 in/hr0.0 mm/hr 0.28 in7.1 mm
09:35 AM 69.8°F21.0°C 69.5°F20.8°C 99% 1.6 mph W2.6 kmh W 3.1 mph5.0 kmh 29.23 in989.8 mb 0.00 in0.0 mm 0.00 in/hr0.0 mm/hr 0.28 in7.1 mm
09:40 AM 69.8°F21.0°C 69.5°F20.8°C 99% 1.6 mph WNW2.6 kmh WNW 3.1 mph5.0 kmh 29.24 in990.2 mb 0.00 in0.0 mm 0.00 in/hr0.0 mm/hr 0.28 in7.1 mm
09:45 AM 70.0°F21.1°C 69.7°F20.9°C 99% Calm Calm 3.1 mph5.0 kmh 29.23 in989.8 mb 0.00 in0.0 mm 0.00 in/hr0.0 mm/hr 0.28 in7.1 mm
09:50 AM 70.0°F21.1°C 69.7°F20.9°C 99% Calm Calm 3.1 mph5.0 kmh 29.24 in990.2 mb 0.00 in0.0 mm 0.00 in/hr0.0 mm/hr 0.28 in7.1 mm
09:55 AM 70.2°F21.2°C 69.9°F21.1°C 99% 0.7 mph S1.1 kmh S 1.6 mph2.6 kmh 29.23 in989.8 mb 0.00 in0.0 mm 0.00 in/hr0.0 mm/hr 0.28 in7.1 mm
10:00 AM 70.2°F21.2°C 69.9°F21.1°C 99% 0.7 mph W1.1 kmh W 1.6 mph2.6 kmh 29.23 in989.8 mb 0.00 in0.0 mm 0.00 in/hr0.0 mm/hr 0.28 in7.1 mm
10:05 AM 70.2°F21.2°C 69.9°F21.1°C 99% 0.7 mph W1.1 kmh W 1.6 mph2.6 kmh 29.23 in989.8 mb 0.00 in0.0 mm 0.00 in/hr0.0 mm/hr 0.28 in7.1 mm
10:10 AM 70.2°F21.2°C 69.9°F21.1°C 99% 0.7 mph W1.1 kmh W 1.6 mph2.6 kmh 29.24 in990.2 mb 0.00 in0.0 mm 0.00 in/hr0.0 mm/hr 0.28 in7.1 mm
10:15 AM 71.4°F21.9°C 71.2°F21.8°C 99% Calm Calm -- 29.24 in990.2 mb 0.00 in0.0 mm 0.00 in/hr0.0 mm/hr 0.28 in7.1 mm
10:20 AM 72.0°F22.2°C 71.7°F22.1°C 99% Calm Calm 0.7 mph1.1 kmh 29.25 in990.5 mb 0.00 in0.0 mm 0.00 in/hr0.0 mm/hr 0.28 in7.1 mm
10:25 AM 72.5°F22.5°C 72.2°F22.3°C 99% Calm Calm 1.6 mph2.6 kmh 29.25 in990.5 mb 0.00 in0.0 mm 0.00 in/hr0.0 mm/hr 0.28 in7.1 mm
10:30 AM 72.5°F22.5°C 72.2°F22.3°C 99% Calm Calm 1.6 mph2.6 kmh 29.24 in990.2 mb 0.00 in0.0 mm 0.00 in/hr0.0 mm/hr 0.28 in7.1 mm
10:35 AM 72.5°F22.5°C 72.2°F22.3°C 99% Calm Calm 1.6 mph2.6 kmh 29.24 in990.2 mb 0.00 in0.0 mm 0.00 in/hr0.0 mm/hr 0.28 in7.1 mm
10:40 AM 71.6°F22.0°C 71.3°F21.8°C 99% 0.7 mph NE1.1 kmh NE 1.6 mph2.6 kmh 29.24 in990.2 mb 0.00 in0.0 mm 0.00 in/hr0.0 mm/hr 0.28 in7.1 mm
10:45 AM 71.4°F21.9°C 71.2°F21.8°C 99% Calm Calm 3.8 mph6.1 kmh 29.24 in990.2 mb 0.00 in0.0 mm 0.00 in/hr0.0 mm/hr 0.28 in7.1 mm
10:50 AM 71.2°F21.8°C 71.0°F21.7°C 99% 0.7 mph NE1.1 kmh NE 3.8 mph6.1 kmh 29.24 in990.2 mb 0.00 in0.0 mm 0.00 in/hr0.0 mm/hr 0.28 in7.1 mm
10:55 AM 71.2°F21.8°C 71.0°F21.7°C 99% Calm Calm 3.1 mph5.0 kmh 29.23 in989.8 mb 0.00 in0.0 mm 0.00 in/hr0.0 mm/hr 0.28 in7.1 mm
11:00 AM 71.6°F22.0°C 71.3°F21.8°C 99% Calm Calm 2.2 mph3.5 kmh 29.23 in989.8 mb 0.00 in0.0 mm 0.00 in/hr0.0 mm/hr 0.28 in7.1 mm
11:05 AM 71.6°F22.0°C 71.3°F21.8°C 99% Calm Calm 2.2 mph3.5 kmh 29.21 in989.2 mb 0.00 in0.0 mm 0.00 in/hr0.0 mm/hr 0.28 in7.1 mm
11:10 AM 71.6°F22.0°C 71.3°F21.8°C 99% Calm Calm 3.8 mph6.1 kmh 29.22 in989.5 mb 0.01 in0.3 mm 0.12 in/hr3.0 mm/hr 0.30 in7.6 mm
11:15 AM 71.6°F22.0°C 71.3°F21.8°C 99% Calm Calm 3.8 mph6.1 kmh 29.22 in989.5 mb 0.01 in0.3 mm 0.00 in/hr0.0 mm/hr 0.30 in7.6 mm
11:20 AM 72.0°F22.2°C 71.7°F22.1°C 99% Calm Calm 0.7 mph1.1 kmh 29.22 in989.5 mb 0.01 in0.3 mm 0.00 in/hr0.0 mm/hr 0.30 in7.6 mm
11:25 AM 72.0°F22.2°C 71.7°F22.1°C 99% Calm Calm 0.7 mph1.1 kmh 29.22 in989.5 mb 0.01 in0.3 mm 0.00 in/hr0.0 mm/hr 0.30 in7.6 mm
11:30 AM 72.0°F22.2°C 71.7°F22.1°C 99% Calm Calm -- 29.22 in989.5 mb 0.01 in0.3 mm 0.00 in/hr0.0 mm/hr 0.30 in7.6 mm
11:35 AM 72.3°F22.4°C 72.1°F22.3°C 99% Calm Calm -- 29.23 in989.8 mb 0.01 in0.3 mm 0.00 in/hr0.0 mm/hr 0.30 in7.6 mm
11:40 AM 72.5°F22.5°C 72.2°F22.3°C 99% Calm Calm -- 29.23 in989.8 mb 0.01 in0.3 mm 0.00 in/hr0.0 mm/hr 0.30 in7.6 mm
11:45 AM 72.3°F22.4°C 72.1°F22.3°C 99% Calm Calm 2.2 mph3.5 kmh 29.24 in990.2 mb 0.01 in0.3 mm 0.00 in/hr0.0 mm/hr 0.30 in7.6 mm
11:50 AM 72.3°F22.4°C 72.1°F22.3°C 99% Calm Calm 2.2 mph3.5 kmh 29.23 in989.8 mb 0.01 in0.3 mm 0.00 in/hr0.0 mm/hr 0.30 in7.6 mm
11:55 AM 71.8°F22.1°C 71.5°F21.9°C 99% 0.7 mph ESE1.1 kmh ESE 3.8 mph6.1 kmh 29.22 in989.5 mb 0.01 in0.3 mm 0.00 in/hr0.0 mm/hr 0.30 in7.6 mm
12:00 PM 71.8°F22.1°C 71.5°F21.9°C 99% 0.7 mph SE1.1 kmh SE 3.8 mph6.1 kmh 29.23 in989.8 mb 0.01 in0.3 mm 0.00 in/hr0.0 mm/hr 0.30 in7.6 mm
12:05 PM 71.8°F22.1°C 71.5°F21.9°C 99% 0.7 mph SE1.1 kmh SE 2.2 mph3.5 kmh 29.23 in989.8 mb 0.01 in0.3 mm 0.00 in/hr0.0 mm/hr 0.30 in7.6 mm
12:10 PM 71.8°F22.1°C 71.5°F21.9°C 99% 0.7 mph SE1.1 kmh SE 2.2 mph3.5 kmh 29.21 in989.2 mb 0.00 in0.0 mm 0.00 in/hr0.0 mm/hr 0.30 in7.6 mm
12:15 PM 71.8°F22.1°C 71.5°F21.9°C 99% 0.7 mph SE1.1 kmh SE 2.2 mph3.5 kmh 29.18 in988.1 mb 0.00 in0.0 mm 0.00 in/hr0.0 mm/hr 0.30 in7.6 mm
12:20 PM 71.8°F22.1°C 71.5°F21.9°C 99% 0.7 mph SE1.1 kmh SE 2.2 mph3.5 kmh 29.20 in988.8 mb 0.00 in0.0 mm 0.00 in/hr0.0 mm/hr 0.30 in7.6 mm
12:25 PM 71.8°F22.1°C 71.5°F21.9°C 99% 0.7 mph SE1.1 kmh SE 2.2 mph3.5 kmh 29.20 in988.8 mb 0.00 in0.0 mm 0.00 in/hr0.0 mm/hr 0.30 in7.6 mm
12:30 PM 71.8°F22.1°C 71.5°F21.9°C 99% 0.7 mph SE1.1 kmh SE 2.2 mph3.5 kmh 29.20 in988.8 mb 0.00 in0.0 mm 0.00 in/hr0.0 mm/hr 0.30 in7.6 mm
12:35 PM 71.8°F22.1°C 71.5°F21.9°C 99% 0.7 mph SE1.1 kmh SE 2.2 mph3.5 kmh 29.19 in988.5 mb 0.00 in0.0 mm 0.00 in/hr0.0 mm/hr 0.30 in7.6 mm
12:40 PM 72.1°F22.3°C 71.9°F22.2°C 99% Calm Calm 0.7 mph1.1 kmh 29.20 in988.8 mb 0.01 in0.3 mm 0.12 in/hr3.0 mm/hr 0.31 in7.9 mm
12:45 PM 72.1°F22.3°C 71.9°F22.2°C 99% Calm Calm 0.7 mph1.1 kmh 29.21 in989.2 mb 0.01 in0.3 mm 0.00 in/hr0.0 mm/hr 0.31 in7.9 mm
12:50 PM 72.1°F22.3°C 71.9°F22.2°C 99% Calm Calm 0.7 mph1.1 kmh 29.20 in988.8 mb 0.01 in0.3 mm 0.00 in/hr0.0 mm/hr 0.31 in7.9 mm
12:55 PM 72.1°F22.3°C 71.9°F22.2°C 99% Calm Calm 0.7 mph1.1 kmh 29.20 in988.8 mb 0.01 in0.3 mm 0.00 in/hr0.0 mm/hr 0.31 in7.9 mm
01:00 PM 72.0°F22.2°C 71.7°F22.1°C 99% Calm Calm 2.2 mph3.5 kmh 29.19 in988.5 mb 0.01 in0.3 mm 0.00 in/hr0.0 mm/hr 0.31 in7.9 mm
01:05 PM 72.0°F22.2°C 71.7°F22.1°C 99% Calm Calm 2.2 mph3.5 kmh 29.19 in988.5 mb 0.01 in0.3 mm 0.00 in/hr0.0 mm/hr 0.31 in7.9 mm
01:10 PM 72.0°F22.2°C 71.7°F22.1°C 99% Calm Calm 2.2 mph3.5 kmh 29.18 in988.1 mb 0.01 in0.3 mm 0.00 in/hr0.0 mm/hr 0.31 in7.9 mm
01:15 PM 72.0°F22.2°C 71.7°F22.1°C 99% Calm Calm 2.2 mph3.5 kmh 29.18 in988.1 mb 0.01 in0.3 mm 0.00 in/hr0.0 mm/hr 0.31 in7.9 mm
01:20 PM 72.0°F22.2°C 71.7°F22.1°C 99% Calm Calm 2.2 mph3.5 kmh 29.18 in988.1 mb 0.01 in0.3 mm 0.00 in/hr0.0 mm/hr 0.31 in7.9 mm
01:25 PM 73.4°F23.0°C 73.2°F22.9°C 99% 1.6 mph N2.6 kmh N 3.1 mph5.0 kmh 29.18 in988.1 mb 0.22 in5.6 mm 2.52 in/hr64.0 mm/hr 0.52 in13.2 mm
01:30 PM 73.6°F23.1°C 73.3°F22.9°C 99% Calm Calm 4.5 mph7.2 kmh 29.17 in987.8 mb 0.40 in10.2 mm 2.16 in/hr54.9 mm/hr 0.70 in17.8 mm
01:35 PM 73.6°F23.1°C 73.3°F22.9°C 99% 2.2 mph SSW3.5 kmh SSW 5.4 mph8.7 kmh 29.15 in987.1 mb 0.40 in10.2 mm 0.00 in/hr0.0 mm/hr 0.70 in17.8 mm
01:40 PM 74.3°F23.5°C 74.1°F23.4°C 99% Calm Calm 5.4 mph8.7 kmh 29.14 in986.8 mb 0.39 in9.9 mm 0.00 in/hr0.0 mm/hr 0.70 in17.8 mm
01:45 PM 74.5°F23.6°C 74.2°F23.4°C 99% 4.5 mph N7.2 kmh N 9.2 mph14.8 kmh 29.12 in986.1 mb 0.39 in9.9 mm 0.00 in/hr0.0 mm/hr 0.70 in17.8 mm
01:50 PM 74.5°F23.6°C 74.2°F23.4°C 99% 2.2 mph WSW3.5 kmh WSW 9.2 mph14.8 kmh 29.15 in987.1 mb 0.39 in9.9 mm 0.00 in/hr0.0 mm/hr 0.70 in17.8 mm
01:55 PM 74.7°F23.7°C 74.4°F23.6°C 99% Calm Calm 9.2 mph14.8 kmh 29.16 in987.5 mb 0.41 in10.4 mm 0.24 in/hr6.1 mm/hr 0.72 in18.3 mm
02:00 PM 74.7°F23.7°C 74.4°F23.6°C 99% Calm Calm 7.6 mph12.2 kmh 29.18 in988.1 mb 0.53 in13.5 mm 0.13 in/hr3.3 mm/hr 0.84 in21.3 mm
02:05 PM 74.7°F23.7°C 74.4°F23.6°C 99% Calm Calm 1.6 mph2.6 kmh 29.18 in988.1 mb 0.53 in13.5 mm 0.00 in/hr0.0 mm/hr 0.84 in21.3 mm
02:10 PM 74.8°F23.8°C 74.6°F23.7°C 99% Calm Calm 0.7 mph1.1 kmh 29.17 in987.8 mb 0.72 in18.3 mm 2.28 in/hr57.9 mm/hr 1.03 in26.2 mm
02:15 PM 75.0°F23.9°C 74.8°F23.8°C 99% Calm Calm 2.2 mph3.5 kmh 29.15 in987.1 mb 0.72 in18.3 mm 0.00 in/hr0.0 mm/hr 1.03 in26.2 mm
02:20 PM 76.5°F24.7°C 76.2°F24.6°C 99% 1.6 mph SE2.6 kmh SE 4.5 mph7.2 kmh 29.14 in986.8 mb 0.72 in18.3 mm 0.00 in/hr0.0 mm/hr 1.03 in26.2 mm
02:25 PM 77.0°F25.0°C 76.8°F24.9°C 99% Calm Calm 6.0 mph9.7 kmh 29.15 in987.1 mb 0.51 in13.0 mm 0.00 in/hr0.0 mm/hr 1.03 in26.2 mm
02:30 PM 77.9°F25.5°C 77.7°F25.4°C 99% 1.6 mph SE2.6 kmh SE 6.0 mph9.7 kmh 29.14 in986.8 mb 0.33 in8.4 mm 0.00 in/hr0.0 mm/hr 1.03 in26.2 mm
02:35 PM 77.9°F25.5°C 77.7°F25.4°C 99% Calm Calm 3.8 mph6.1 kmh 29.14 in986.8 mb 0.33 in8.4 mm 0.00 in/hr0.0 mm/hr 1.03 in26.2 mm
02:40 PM 77.5°F25.3°C 77.3°F25.2°C 99% 1.6 mph NE2.6 kmh NE 3.8 mph6.1 kmh 29.13 in986.5 mb 0.33 in8.4 mm 0.00 in/hr0.0 mm/hr 1.03 in26.2 mm
02:45 PM 77.2°F25.1°C 76.9°F24.9°C 99% Calm Calm 3.1 mph5.0 kmh 29.12 in986.1 mb 0.33 in8.4 mm 0.00 in/hr0.0 mm/hr 1.03 in26.2 mm
02:50 PM 77.2°F25.1°C 76.9°F24.9°C 99% Calm Calm 3.1 mph5.0 kmh 29.12 in986.1 mb 0.33 in8.4 mm 0.00 in/hr0.0 mm/hr 1.03 in26.2 mm
02:55 PM 77.0°F25.0°C 76.8°F24.9°C 99% Calm Calm 1.6 mph2.6 kmh 29.12 in986.1 mb 0.31 in7.9 mm 0.00 in/hr0.0 mm/hr 1.03 in26.2 mm
03:00 PM 77.0°F25.0°C 76.8°F24.9°C 99% Calm Calm 0.7 mph1.1 kmh 29.11 in985.8 mb 0.19 in4.8 mm 0.00 in/hr0.0 mm/hr 1.03 in26.2 mm
03:05 PM 77.0°F25.0°C 76.8°F24.9°C 99% Calm Calm -- 29.12 in986.1 mb 0.19 in4.8 mm 0.00 in/hr0.0 mm/hr 1.03 in26.2 mm
03:10 PM 76.6°F24.8°C 76.4°F24.7°C 99% Calm Calm 0.7 mph1.1 kmh 29.12 in986.1 mb 0.04 in1.0 mm 0.00 in/hr0.0 mm/hr 1.06 in26.9 mm
03:15 PM 76.6°F24.8°C 76.4°F24.7°C 99% Calm Calm 0.7 mph1.1 kmh 29.13 in986.5 mb 0.04 in1.0 mm 0.00 in/hr0.0 mm/hr 1.06 in26.9 mm
03:20 PM 76.3°F24.6°C 76.0°F24.4°C 99% 0.7 mph W1.1 kmh W 3.1 mph5.0 kmh 29.12 in986.1 mb 0.11 in2.8 mm 0.84 in/hr21.3 mm/hr 1.13 in28.7 mm
03:25 PM 76.3°F24.6°C 76.0°F24.4°C 99% 1.6 mph W2.6 kmh W 4.5 mph7.2 kmh 29.11 in985.8 mb 0.15 in3.8 mm 0.48 in/hr12.2 mm/hr 1.18 in30.0 mm
03:30 PM 76.6°F24.8°C 76.4°F24.7°C 99% 2.2 mph WNW3.5 kmh WNW 10.7 mph17.2 kmh 29.10 in985.4 mb 0.15 in3.8 mm 0.00 in/hr0.0 mm/hr 1.18 in30.0 mm
03:35 PM 77.7°F25.4°C 77.5°F25.3°C 99% 1.6 mph NW2.6 kmh NW 10.7 mph17.2 kmh 29.09 in985.1 mb 0.15 in3.8 mm 0.00 in/hr0.0 mm/hr 1.18 in30.0 mm
03:40 PM 80.6°F27.0°C 80.4°F26.9°C 99% 1.6 mph NNW2.6 kmh NNW 10.7 mph17.2 kmh 29.09 in985.1 mb 0.15 in3.8 mm 0.00 in/hr0.0 mm/hr 1.18 in30.0 mm
03:45 PM 81.3°F27.4°C 81.1°F27.3°C 99% 0.7 mph N1.1 kmh N 3.8 mph6.1 kmh 29.09 in985.1 mb 0.15 in3.8 mm 0.00 in/hr0.0 mm/hr 1.18 in30.0 mm
03:50 PM 82.4°F28.0°C 82.2°F27.9°C 99% 2.2 mph N3.5 kmh N 5.4 mph8.7 kmh 29.09 in985.1 mb 0.15 in3.8 mm 0.00 in/hr0.0 mm/hr 1.18 in30.0 mm
03:55 PM 82.4°F28.0°C 82.2°F27.9°C 99% 2.2 mph N3.5 kmh N 5.4 mph8.7 kmh 29.09 in985.1 mb 0.15 in3.8 mm 0.00 in/hr0.0 mm/hr 1.18 in30.0 mm
04:00 PM 83.3°F28.5°C 83.1°F28.4°C 99% 1.6 mph N2.6 kmh N 5.4 mph8.7 kmh 29.09 in985.1 mb 0.15 in3.8 mm 0.00 in/hr0.0 mm/hr 1.18 in30.0 mm
04:05 PM 84.4°F29.1°C 84.2°F29.0°C 99% 0.7 mph NE1.1 kmh NE 5.4 mph8.7 kmh 29.09 in985.1 mb 0.15 in3.8 mm 0.00 in/hr0.0 mm/hr 1.18 in30.0 mm
04:10 PM 84.4°F29.1°C 84.2°F29.0°C 99% 0.7 mph NW1.1 kmh NW 3.8 mph6.1 kmh 29.08 in984.8 mb 0.12 in3.0 mm 0.00 in/hr0.0 mm/hr 1.18 in30.0 mm
04:15 PM 83.8°F28.8°C 83.6°F28.7°C 99% 3.8 mph NW6.1 kmh NW 6.9 mph11.1 kmh 29.08 in984.8 mb 0.12 in3.0 mm 0.00 in/hr0.0 mm/hr 1.18 in30.0 mm
04:20 PM 82.0°F27.8°C 81.8°F27.7°C 99% 1.6 mph NNW2.6 kmh NNW 7.6 mph12.2 kmh 29.08 in984.8 mb 0.06 in1.5 mm 0.00 in/hr0.0 mm/hr 1.19 in30.2 mm
04:25 PM 81.5°F27.5°C 81.3°F27.4°C 99% Calm Calm 7.6 mph12.2 kmh 29.08 in984.8 mb 0.06 in1.5 mm 0.00 in/hr0.0 mm/hr 1.24 in31.5 mm
04:30 PM 80.4°F26.9°C 80.2°F26.8°C 99% Calm Calm 6.9 mph11.1 kmh 29.07 in984.4 mb 0.06 in1.5 mm 0.00 in/hr0.0 mm/hr 1.24 in31.5 mm
04:35 PM 80.4°F26.9°C 80.2°F26.8°C 99% 3.1 mph NW5.0 kmh NW 7.6 mph12.2 kmh 29.08 in984.8 mb 0.06 in1.5 mm 0.00 in/hr0.0 mm/hr 1.24 in31.5 mm
04:40 PM 81.5°F27.5°C 81.3°F27.4°C 99% 1.6 mph NW2.6 kmh NW 10.7 mph17.2 kmh 29.08 in984.8 mb 0.06 in1.5 mm 0.00 in/hr0.0 mm/hr 1.24 in31.5 mm
04:45 PM 82.0°F27.8°C 81.8°F27.7°C 99% 2.2 mph NW3.5 kmh NW 10.7 mph17.2 kmh 29.08 in984.8 mb 0.06 in1.5 mm 0.00 in/hr0.0 mm/hr 1.24 in31.5 mm
04:50 PM 82.0°F27.8°C 81.8°F27.7°C 99% 0.7 mph NW1.1 kmh NW 5.4 mph8.7 kmh 29.09 in985.1 mb 0.06 in1.5 mm 0.00 in/hr0.0 mm/hr 1.24 in31.5 mm
04:55 PM 81.9°F27.7°C 81.6°F27.6°C 99% 0.7 mph N1.1 kmh N 5.4 mph8.7 kmh 29.08 in984.8 mb 0.06 in1.5 mm 0.00 in/hr0.0 mm/hr 1.24 in31.5 mm
05:00 PM 81.7°F27.6°C 81.5°F27.5°C 99% Calm Calm 4.5 mph7.2 kmh 29.08 in984.8 mb 0.06 in1.5 mm 0.00 in/hr0.0 mm/hr 1.24 in31.5 mm
05:05 PM 81.9°F27.7°C 81.6°F27.6°C 99% 0.7 mph N1.1 kmh N 6.0 mph9.7 kmh 29.07 in984.4 mb 0.06 in1.5 mm 0.00 in/hr0.0 mm/hr 1.24 in31.5 mm
05:10 PM 80.1°F26.7°C 79.8°F26.6°C 99% Calm Calm 6.0 mph9.7 kmh 29.07 in984.4 mb 0.06 in1.5 mm 0.00 in/hr0.0 mm/hr 1.24 in31.5 mm
05:15 PM 80.1°F26.7°C 79.8°F26.6°C 99% Calm Calm 1.6 mph2.6 kmh 29.07 in984.4 mb 0.06 in1.5 mm 0.00 in/hr0.0 mm/hr 1.24 in31.5 mm
05:20 PM 85.8°F29.9°C 85.6°F29.8°C 99% 0.7 mph NE1.1 kmh NE 2.2 mph3.5 kmh 29.07 in984.4 mb 0.05 in1.3 mm 0.00 in/hr0.0 mm/hr 1.24 in31.5 mm
05:25 PM 87.1°F30.6°C 86.9°F30.5°C 99% Calm Calm 3.8 mph6.1 kmh 29.07 in984.4 mb 0.00 in0.0 mm 0.00 in/hr0.0 mm/hr 1.24 in31.5 mm
05:30 PM 88.3°F31.3°C 88.1°F31.2°C 99% Calm Calm 3.8 mph6.1 kmh 29.08 in984.8 mb 0.00 in0.0 mm 0.00 in/hr0.0 mm/hr 1.24 in31.5 mm
05:35 PM 88.7°F31.5°C 88.5°F31.4°C 99% 0.7 mph N1.1 kmh N 3.1 mph5.0 kmh 29.08 in984.8 mb 0.00 in0.0 mm 0.00 in/hr0.0 mm/hr 1.24 in31.5 mm
05:40 PM 88.3°F31.3°C 88.1°F31.2°C 99% Calm Calm 3.8 mph6.1 kmh 29.07 in984.4 mb 0.00 in0.0 mm 0.00 in/hr0.0 mm/hr 1.24 in31.5 mm
05:45 PM 88.0°F31.1°C 87.8°F31.0°C 99% 0.7 mph NNW1.1 kmh NNW 3.8 mph6.1 kmh 29.07 in984.4 mb 0.00 in0.0 mm 0.00 in/hr0.0 mm/hr 1.24 in31.5 mm
05:50 PM 88.0°F31.1°C 87.8°F31.0°C 99% 1.6 mph NNW2.6 kmh NNW 3.8 mph6.1 kmh 29.07 in984.4 mb 0.00 in0.0 mm 0.00 in/hr0.0 mm/hr 1.24 in31.5 mm
05:55 PM 87.6°F30.9°C 87.4°F30.8°C 99% 0.7 mph NNE1.1 kmh NNE 5.4 mph8.7 kmh 29.07 in984.4 mb 0.00 in0.0 mm 0.00 in/hr0.0 mm/hr 1.24 in31.5 mm
06:00 PM 87.4°F30.8°C 87.2°F30.7°C 99% 1.6 mph N2.6 kmh N 6.9 mph11.1 kmh 29.07 in984.4 mb 0.01 in0.3 mm 0.01 in/hr0.3 mm/hr 1.25 in31.8 mm
06:05 PM 87.6°F30.9°C 87.4°F30.8°C 99% 2.2 mph WNW3.5 kmh WNW 6.9 mph11.1 kmh 29.07 in984.4 mb 0.01 in0.3 mm 0.00 in/hr0.0 mm/hr 1.25 in31.8 mm
06:10 PM 87.6°F30.9°C 87.4°F30.8°C 99% 1.6 mph NNW2.6 kmh NNW 5.4 mph8.7 kmh 29.08 in984.8 mb 0.01 in0.3 mm 0.00 in/hr0.0 mm/hr 1.25 in31.8 mm
06:15 PM 87.1°F30.6°C 86.9°F30.5°C 99% Calm Calm 6.0 mph9.7 kmh 29.08 in984.8 mb 0.01 in0.3 mm 0.00 in/hr0.0 mm/hr 1.25 in31.8 mm
06:20 PM 87.8°F31.0°C 87.6°F30.9°C 99% Calm Calm 6.0 mph9.7 kmh 29.08 in984.8 mb 0.01 in0.3 mm 0.00 in/hr0.0 mm/hr 1.25 in31.8 mm
06:25 PM 87.3°F30.7°C 87.0°F30.6°C 99% 2.2 mph NW3.5 kmh NW 6.9 mph11.1 kmh 29.07 in984.4 mb 0.01 in0.3 mm 0.00 in/hr0.0 mm/hr 1.25 in31.8 mm
06:30 PM 87.3°F30.7°C 87.0°F30.6°C 99% 2.2 mph WNW3.5 kmh WNW 6.9 mph11.1 kmh 29.07 in984.4 mb 0.01 in0.3 mm 0.00 in/hr0.0 mm/hr 1.25 in31.8 mm
06:35 PM 86.2°F30.1°C 86.0°F30.0°C 99% 2.2 mph W3.5 kmh W 6.0 mph9.7 kmh 29.07 in984.4 mb 0.01 in0.3 mm 0.00 in/hr0.0 mm/hr 1.25 in31.8 mm
06:40 PM 86.4°F30.2°C 86.1°F30.1°C 99% Calm Calm 6.0 mph9.7 kmh 29.07 in984.4 mb 0.01 in0.3 mm 0.00 in/hr0.0 mm/hr 1.25 in31.8 mm
06:45 PM 86.5°F30.3°C 86.3°F30.2°C 99% Calm Calm 5.4 mph8.7 kmh 29.07 in984.4 mb 0.01 in0.3 mm 0.00 in/hr0.0 mm/hr 1.25 in31.8 mm
06:50 PM 85.6°F29.8°C 85.4°F29.7°C 99% Calm Calm 2.2 mph3.5 kmh 29.07 in984.4 mb 0.01 in0.3 mm 0.00 in/hr0.0 mm/hr 1.25 in31.8 mm
06:55 PM 85.1°F29.5°C 84.9°F29.4°C 99% Calm Calm 3.8 mph6.1 kmh 29.07 in984.4 mb 0.01 in0.3 mm 0.00 in/hr0.0 mm/hr 1.25 in31.8 mm
07:00 PM 84.9°F29.4°C 84.7°F29.3°C 99% Calm Calm 3.8 mph6.1 kmh 29.07 in984.4 mb 0.00 in0.0 mm 0.00 in/hr0.0 mm/hr 1.25 in31.8 mm
07:05 PM 84.6°F29.2°C 84.3°F29.1°C 99% Calm Calm 3.1 mph5.0 kmh 29.07 in984.4 mb 0.00 in0.0 mm 0.00 in/hr0.0 mm/hr 1.25 in31.8 mm
07:10 PM 84.0°F28.9°C 83.8°F28.8°C 99% 0.7 mph S1.1 kmh S 3.1 mph5.0 kmh 29.07 in984.4 mb 0.00 in0.0 mm 0.00 in/hr0.0 mm/hr 1.25 in31.8 mm
07:15 PM 83.7°F28.7°C 83.4°F28.6°C 99% Calm Calm 2.2 mph3.5 kmh 29.07 in984.4 mb 0.00 in0.0 mm 0.00 in/hr0.0 mm/hr 1.25 in31.8 mm
07:20 PM 82.8°F28.2°C 82.5°F28.1°C 99% Calm Calm 3.1 mph5.0 kmh 29.08 in984.8 mb 0.00 in0.0 mm 0.00 in/hr0.0 mm/hr 1.25 in31.8 mm
07:25 PM 82.4°F28.0°C 82.2°F27.9°C 99% Calm Calm 3.1 mph5.0 kmh 29.07 in984.4 mb 0.00 in0.0 mm 0.00 in/hr0.0 mm/hr 1.25 in31.8 mm
07:30 PM 82.2°F27.9°C 82.0°F27.8°C 99% Calm Calm 3.1 mph5.0 kmh 29.08 in984.8 mb 0.00 in0.0 mm 0.00 in/hr0.0 mm/hr 1.25 in31.8 mm
07:35 PM 82.2°F27.9°C 82.0°F27.8°C 99% Calm Calm 2.2 mph3.5 kmh 29.08 in984.8 mb 0.00 in0.0 mm 0.00 in/hr0.0 mm/hr 1.25 in31.8 mm
07:40 PM 81.7°F27.6°C 81.5°F27.5°C 99% Calm Calm 2.2 mph3.5 kmh 29.08 in984.8 mb 0.00 in0.0 mm 0.00 in/hr0.0 mm/hr 1.25 in31.8 mm
07:45 PM 81.7°F27.6°C 81.5°F27.5°C 99% Calm Calm 1.6 mph2.6 kmh 29.08 in984.8 mb 0.00 in0.0 mm 0.00 in/hr0.0 mm/hr 1.25 in31.8 mm
07:50 PM 81.7°F27.6°C 81.5°F27.5°C 99% Calm Calm 2.2 mph3.5 kmh 29.08 in984.8 mb 0.00 in0.0 mm 0.00 in/hr0.0 mm/hr 1.25 in31.8 mm
07:55 PM 81.7°F27.6°C 81.5°F27.5°C 99% Calm Calm 2.2 mph3.5 kmh 29.08 in984.8 mb 0.00 in0.0 mm 0.00 in/hr0.0 mm/hr 1.25 in31.8 mm
08:00 PM 81.1°F27.3°C 80.9°F27.2°C 99% Calm Calm 1.6 mph2.6 kmh 29.08 in984.8 mb 0.00 in0.0 mm 0.00 in/hr0.0 mm/hr 1.25 in31.8 mm
08:05 PM 81.0°F27.2°C 80.7°F27.1°C 99% 0.7 mph N1.1 kmh N 2.2 mph3.5 kmh 29.08 in984.8 mb 0.00 in0.0 mm 0.00 in/hr0.0 mm/hr 1.25 in31.8 mm
08:10 PM 80.8°F27.1°C 80.5°F26.9°C 99% 1.6 mph NW2.6 kmh NW 3.8 mph6.1 kmh 29.08 in984.8 mb 0.00 in0.0 mm 0.00 in/hr0.0 mm/hr 1.25 in31.8 mm
08:15 PM 80.6°F27.0°C 80.4°F26.9°C 99% Calm Calm 3.8 mph6.1 kmh 29.09 in985.1 mb 0.00 in0.0 mm 0.00 in/hr0.0 mm/hr 1.25 in31.8 mm
08:20 PM 80.1°F26.7°C 79.8°F26.6°C 99% Calm Calm 3.8 mph6.1 kmh 29.08 in984.8 mb 0.00 in0.0 mm 0.00 in/hr0.0 mm/hr 1.25 in31.8 mm
08:25 PM 80.1°F26.7°C 79.8°F26.6°C 99% Calm Calm 4.5 mph7.2 kmh 29.08 in984.8 mb 0.00 in0.0 mm 0.00 in/hr0.0 mm/hr 1.25 in31.8 mm
08:30 PM 79.5°F26.4°C 79.3°F26.3°C 99% 0.7 mph N1.1 kmh N 4.5 mph7.2 kmh 29.08 in984.8 mb 0.00 in0.0 mm 0.00 in/hr0.0 mm/hr 1.25 in31.8 mm
08:35 PM 79.3°F26.3°C 79.1°F26.2°C 99% Calm Calm 5.4 mph8.7 kmh 29.08 in984.8 mb 0.00 in0.0 mm 0.00 in/hr0.0 mm/hr 1.25 in31.8 mm
08:40 PM 79.2°F26.2°C 78.9°F26.1°C 99% 0.7 mph N1.1 kmh N 5.4 mph8.7 kmh 29.08 in984.8 mb 0.00 in0.0 mm 0.00 in/hr0.0 mm/hr 1.25 in31.8 mm
08:45 PM 79.2°F26.2°C 78.9°F26.1°C 99% Calm Calm 3.8 mph6.1 kmh 29.07 in984.4 mb 0.00 in0.0 mm 0.00 in/hr0.0 mm/hr 1.25 in31.8 mm
08:50 PM 79.3°F26.3°C 79.1°F26.2°C 99% 0.7 mph N1.1 kmh N 6.0 mph9.7 kmh 29.07 in984.4 mb 0.00 in0.0 mm 0.00 in/hr0.0 mm/hr 1.25 in31.8 mm
08:55 PM 79.3°F26.3°C 79.1°F26.2°C 99% Calm Calm 6.0 mph9.7 kmh 29.07 in984.4 mb 0.00 in0.0 mm 0.00 in/hr0.0 mm/hr 1.25 in31.8 mm
09:00 PM 79.2°F26.2°C 78.9°F26.1°C 99% Calm Calm 5.4 mph8.7 kmh 29.07 in984.4 mb 0.00 in0.0 mm 0.00 in/hr0.0 mm/hr 1.25 in31.8 mm
09:05 PM 78.8°F26.0°C 78.6°F25.9°C 99% Calm Calm 5.4 mph8.7 kmh 29.07 in984.4 mb 0.00 in0.0 mm 0.00 in/hr0.0 mm/hr 1.25 in31.8 mm
09:10 PM 78.6°F25.9°C 78.4°F25.8°C 99% Calm Calm 3.1 mph5.0 kmh 29.08 in984.8 mb 0.00 in0.0 mm 0.00 in/hr0.0 mm/hr 1.25 in31.8 mm
09:15 PM 78.4°F25.8°C 78.2°F25.7°C 99% Calm Calm 3.1 mph5.0 kmh 29.07 in984.4 mb 0.00 in0.0 mm 0.00 in/hr0.0 mm/hr 1.25 in31.8 mm
09:20 PM 78.4°F25.8°C 78.2°F25.7°C 99% Calm Calm 0.7 mph1.1 kmh 29.08 in984.8 mb 0.00 in0.0 mm 0.00 in/hr0.0 mm/hr 1.25 in31.8 mm
09:25 PM 78.3°F25.7°C 78.0°F25.6°C 99% 0.7 mph N1.1 kmh N 4.5 mph7.2 kmh 29.08 in984.8 mb 0.00 in0.0 mm 0.00 in/hr0.0 mm/hr 1.25 in31.8 mm
09:30 PM 78.3°F25.7°C 78.0°F25.6°C 99% 0.7 mph N1.1 kmh N 5.4 mph8.7 kmh 29.09 in985.1 mb 0.00 in0.0 mm 0.00 in/hr0.0 mm/hr 1.25 in31.8 mm
09:35 PM 78.3°F25.7°C 78.0°F25.6°C 99% 1.6 mph N2.6 kmh N 5.4 mph8.7 kmh 29.09 in985.1 mb 0.00 in0.0 mm 0.00 in/hr0.0 mm/hr 1.25 in31.8 mm
09:40 PM 78.3°F25.7°C 78.0°F25.6°C 99% 1.6 mph NW2.6 kmh NW 4.5 mph7.2 kmh 29.09 in985.1 mb 0.00 in0.0 mm 0.00 in/hr0.0 mm/hr 1.25 in31.8 mm
09:45 PM 77.9°F25.5°C 77.7°F25.4°C 99% Calm Calm 4.5 mph7.2 kmh 29.10 in985.4 mb 0.00 in0.0 mm 0.00 in/hr0.0 mm/hr 1.25 in31.8 mm
09:50 PM 77.7°F25.4°C 77.5°F25.3°C 99% 3.1 mph NNW5.0 kmh NNW 8.3 mph13.4 kmh 29.10 in985.4 mb 0.00 in0.0 mm 0.00 in/hr0.0 mm/hr 1.25 in31.8 mm
09:55 PM 77.7°F25.4°C 77.5°F25.3°C 99% 0.7 mph N1.1 kmh N 8.3 mph13.4 kmh 29.10 in985.4 mb 0.00 in0.0 mm 0.00 in/hr0.0 mm/hr 1.25 in31.8 mm
10:00 PM 77.5°F25.3°C 77.3°F25.2°C 99% 2.2 mph N3.5 kmh N 8.3 mph13.4 kmh 29.10 in985.4 mb 0.00 in0.0 mm 0.00 in/hr0.0 mm/hr 1.25 in31.8 mm
10:05 PM 77.5°F25.3°C 77.3°F25.2°C 99% Calm Calm 5.4 mph8.7 kmh 29.11 in985.8 mb 0.00 in0.0 mm 0.00 in/hr0.0 mm/hr 1.25 in31.8 mm
10:10 PM 77.2°F25.1°C 76.9°F24.9°C 99% Calm Calm 5.4 mph8.7 kmh 29.11 in985.8 mb 0.00 in0.0 mm 0.00 in/hr0.0 mm/hr 1.25 in31.8 mm
10:15 PM 77.0°F25.0°C 76.8°F24.9°C 99% 0.7 mph NNW1.1 kmh NNW 3.8 mph6.1 kmh 29.11 in985.8 mb 0.00 in0.0 mm 0.00 in/hr0.0 mm/hr 1.25 in31.8 mm
10:20 PM 76.8°F24.9°C 76.6°F24.8°C 99% Calm Calm 3.8 mph6.1 kmh 29.11 in985.8 mb 0.00 in0.0 mm 0.00 in/hr0.0 mm/hr 1.25 in31.8 mm
10:25 PM 76.6°F24.8°C 76.4°F24.7°C 99% Calm Calm 1.6 mph2.6 kmh 29.12 in986.1 mb 0.00 in0.0 mm 0.00 in/hr0.0 mm/hr 1.25 in31.8 mm
10:30 PM 76.6°F24.8°C 76.4°F24.7°C 99% Calm Calm 4.5 mph7.2 kmh 29.12 in986.1 mb 0.00 in0.0 mm 0.00 in/hr0.0 mm/hr 1.25 in31.8 mm
10:35 PM 76.6°F24.8°C 76.4°F24.7°C 99% Calm Calm 4.5 mph7.2 kmh 29.13 in986.5 mb 0.00 in0.0 mm 0.00 in/hr0.0 mm/hr 1.25 in31.8 mm
10:40 PM 76.8°F24.9°C 76.6°F24.8°C 99% 0.7 mph N1.1 kmh N 2.2 mph3.5 kmh 29.12 in986.1 mb 0.00 in0.0 mm 0.00 in/hr0.0 mm/hr 1.25 in31.8 mm
10:45 PM 77.0°F25.0°C 76.8°F24.9°C 99% Calm Calm 2.2 mph3.5 kmh 29.12 in986.1 mb 0.00 in0.0 mm 0.00 in/hr0.0 mm/hr 1.25 in31.8 mm
10:50 PM 76.8°F24.9°C 76.6°F24.8°C 99% Calm Calm 2.2 mph3.5 kmh 29.12 in986.1 mb 0.00 in0.0 mm 0.00 in/hr0.0 mm/hr 1.25 in31.8 mm
10:55 PM 76.6°F24.8°C 76.4°F24.7°C 99% Calm Calm 2.2 mph3.5 kmh 29.13 in986.5 mb 0.00 in0.0 mm 0.00 in/hr0.0 mm/hr 1.25 in31.8 mm
11:00 PM 76.6°F24.8°C 76.4°F24.7°C 99% Calm Calm 2.2 mph3.5 kmh 29.13 in986.5 mb 0.00 in0.0 mm 0.00 in/hr0.0 mm/hr 1.25 in31.8 mm
11:05 PM 76.3°F24.6°C 76.0°F24.4°C 99% Calm Calm 2.2 mph3.5 kmh 29.13 in986.5 mb 0.00 in0.0 mm 0.00 in/hr0.0 mm/hr 1.25 in31.8 mm
11:10 PM 76.3°F24.6°C 76.0°F24.4°C 99% 0.7 mph N1.1 kmh N 5.4 mph8.7 kmh 29.12 in986.1 mb 0.00 in0.0 mm 0.00 in/hr0.0 mm/hr 1.25 in31.8 mm
11:15 PM 76.3°F24.6°C 76.0°F24.4°C 99% Calm Calm 5.4 mph8.7 kmh 29.13 in986.5 mb 0.00 in0.0 mm 0.00 in/hr0.0 mm/hr 1.25 in31.8 mm
11:20 PM 76.3°F24.6°C 76.0°F24.4°C 99% 0.7 mph WNW1.1 kmh WNW 3.8 mph6.1 kmh 29.12 in986.1 mb 0.00 in0.0 mm 0.00 in/hr0.0 mm/hr 1.25 in31.8 mm
11:25 PM 76.5°F24.7°C 76.2°F24.6°C 99% 0.7 mph NW1.1 kmh NW 3.8 mph6.1 kmh 29.12 in986.1 mb 0.00 in0.0 mm 0.00 in/hr0.0 mm/hr 1.25 in31.8 mm
11:30 PM 76.8°F24.9°C 76.6°F24.8°C 99% Calm Calm 11.4 mph18.3 kmh 29.13 in986.5 mb 0.00 in0.0 mm 0.00 in/hr0.0 mm/hr 1.25 in31.8 mm
11:35 PM 77.0°F25.0°C 76.8°F24.9°C 99% 0.7 mph NE1.1 kmh NE 11.4 mph18.3 kmh 29.14 in986.8 mb 0.00 in0.0 mm 0.00 in/hr0.0 mm/hr 1.25 in31.8 mm
11:40 PM 77.2°F25.1°C 76.9°F24.9°C 99% Calm Calm 5.4 mph8.7 kmh 29.15 in987.1 mb 0.00 in0.0 mm 0.00 in/hr0.0 mm/hr 1.25 in31.8 mm
11:45 PM 77.0°F25.0°C 76.8°F24.9°C 99% Calm Calm 5.4 mph8.7 kmh 29.15 in987.1 mb 0.00 in0.0 mm 0.00 in/hr0.0 mm/hr 1.25 in31.8 mm
11:50 PM 77.0°F25.0°C 76.8°F24.9°C 99% Calm Calm 3.8 mph6.1 kmh 29.16 in987.5 mb 0.00 in0.0 mm 0.00 in/hr0.0 mm/hr 1.25 in31.8 mm
11:55 PM 76.6°F24.8°C 76.4°F24.7°C 99% Calm Calm 1.6 mph2.6 kmh 29.16 in987.5 mb 0.00 in0.0 mm 0.00 in/hr0.0 mm/hr 1.25 in31.8 mm